createdAt,value
2023-05-22T05:02:50.620Z,15.95
2023-05-22T05:05:17.380Z,15.55
2023-05-22T05:07:50.032Z,13.27
2023-05-22T05:10:17.951Z,15.23
2023-05-22T05:12:45.546Z,19.42
2023-05-22T05:15:12.333Z,16.50
2023-05-22T05:17:39.620Z,20.73
2023-05-22T05:20:08.152Z,16.30
2023-05-22T05:22:35.433Z,15.27
2023-05-22T05:25:05.412Z,15.82
2023-05-22T05:27:33.337Z,16.73
2023-05-22T05:30:01.198Z,16.63
2023-05-22T05:32:41.526Z,14.32
2023-05-22T05:35:22.139Z,17.08
2023-05-22T05:37:59.815Z,17.77
2023-05-22T05:40:27.634Z,14.48
2023-05-22T05:42:55.365Z,16.73
2023-05-22T05:45:24.990Z,16.20
2023-05-22T05:47:53.434Z,13.90
2023-05-22T05:50:20.288Z,14.68
2023-05-22T05:52:48.169Z,16.00
2023-05-22T05:55:18.717Z,18.10
2023-05-22T05:57:46.856Z,16.00
2023-05-22T06:00:20.236Z,14.77
2023-05-22T06:02:51.022Z,16.35
2023-05-22T06:05:45.842Z,18.02
2023-05-22T06:08:34.707Z,12.23
2023-05-22T06:11:02.110Z,15.55
2023-05-22T06:13:38.441Z,15.73
2023-05-22T06:16:06.862Z,16.15
2023-05-22T06:18:34.437Z,16.07
2023-05-22T06:21:01.831Z,13.35
2023-05-22T06:23:28.409Z,15.63
2023-05-22T06:25:56.521Z,14.85
2023-05-22T06:28:24.326Z,19.20
2023-05-22T06:30:52.722Z,15.25
2023-05-22T06:33:22.147Z,18.08
2023-05-22T06:35:50.439Z,14.13
2023-05-22T06:38:17.190Z,15.32
2023-05-22T06:40:44.871Z,16.58
2023-05-22T06:43:23.454Z,14.20
2023-05-22T06:46:11.044Z,14.85
2023-05-22T06:48:48.530Z,17.85
2023-05-22T06:51:22.088Z,18.63
2023-05-22T06:53:51.872Z,15.68
2023-05-22T06:56:25.661Z,16.23
2023-05-22T06:58:56.138Z,15.70
2023-05-22T07:01:31.440Z,13.65
2023-05-22T07:04:05.296Z,13.80
2023-05-22T07:06:39.393Z,16.58
2023-05-22T07:09:08.598Z,14.45
2023-05-22T07:11:36.366Z,12.55
2023-05-22T07:14:03.030Z,15.80
2023-05-22T07:16:33.148Z,12.23
2023-05-22T07:19:01.530Z,13.38
2023-05-22T07:21:32.035Z,14.70
2023-05-22T07:24:00.072Z,14.98
2023-05-22T07:26:29.925Z,12.38
2023-05-22T07:29:04.222Z,12.68
2023-05-22T07:31:33.986Z,16.10
2023-05-22T07:34:01.831Z,14.93
2023-05-22T07:36:30.441Z,12.98
2023-05-22T07:38:57.221Z,14.00
2023-05-22T07:41:25.960Z,12.73
2023-05-22T07:43:53.228Z,17.55
2023-05-22T07:46:26.946Z,17.20
2023-05-22T07:49:09.353Z,13.40
2023-05-22T07:51:39.126Z,13.57
2023-05-22T07:54:07.959Z,12.23
2023-05-22T07:56:39.892Z,14.82
2023-05-22T07:59:07.509Z,13.43
2023-05-22T08:01:34.435Z,13.27
2023-05-22T08:04:01.109Z,14.20
2023-05-22T08:06:28.276Z,14.88
2023-05-22T08:08:54.929Z,14.65
2023-05-22T08:11:22.402Z,13.43
2023-05-22T08:13:48.977Z,12.30
2023-05-22T08:16:16.229Z,12.07
2023-05-22T08:18:42.842Z,13.25
2023-05-22T08:21:10.088Z,15.23
2023-05-22T08:23:38.457Z,13.02
2023-05-22T08:26:09.078Z,14.05
2023-05-22T08:28:36.632Z,11.38
2023-05-22T08:31:04.092Z,16.48
2023-05-22T08:33:30.782Z,12.57
2023-05-22T08:35:58.040Z,12.77
2023-05-22T08:38:24.974Z,13.30
2023-05-22T08:40:54.813Z,12.65
2023-05-22T08:43:21.735Z,15.68
2023-05-22T08:45:56.290Z,11.98
2023-05-22T08:48:24.034Z,10.50
2023-05-22T08:50:57.510Z,10.63
2023-05-22T08:53:27.866Z,14.60
2023-05-22T08:55:55.311Z,10.73
2023-05-22T08:58:22.835Z,9.75
2023-05-22T09:00:50.076Z,13.27
2023-05-22T09:03:18.454Z,10.38
2023-05-22T09:05:46.103Z,12.88
2023-05-22T09:08:20.539Z,12.68
2023-05-22T09:10:48.558Z,11.63
2023-05-22T09:13:26.415Z,11.52
2023-05-22T09:15:54.518Z,11.10
2023-05-22T09:18:22.052Z,11.82
2023-05-22T09:20:51.012Z,12.60
2023-05-22T09:23:17.931Z,11.50
2023-05-22T09:25:46.363Z,12.40
2023-05-22T09:28:13.316Z,12.20
2023-05-22T09:30:43.224Z,11.65
2023-05-22T09:33:12.932Z,11.32
2023-05-22T09:35:42.948Z,10.52
2023-05-22T09:38:12.300Z,12.27
2023-05-22T09:40:41.166Z,12.27
2023-05-22T09:43:09.553Z,13.25
2023-05-22T09:45:37.978Z,10.25
2023-05-22T09:48:09.622Z,11.90
2023-05-22T09:50:37.253Z,10.93
2023-05-22T09:53:05.051Z,10.50
2023-05-22T09:55:33.649Z,10.73
2023-05-22T09:58:04.719Z,11.15
2023-05-22T10:00:34.538Z,10.70
2023-05-22T10:03:15.975Z,11.13
2023-05-22T10:05:49.105Z,12.52
2023-05-22T10:08:21.123Z,10.25
2023-05-22T10:10:51.873Z,11.05
2023-05-22T10:13:19.295Z,12.55
2023-05-22T10:15:49.127Z,10.45
2023-05-22T10:18:17.308Z,12.70
2023-05-22T10:20:47.256Z,10.95
2023-05-22T10:23:16.498Z,10.27
2023-05-22T10:25:45.828Z,11.73
2023-05-22T10:30:42.943Z,11.65
2023-05-22T10:33:45.242Z,9.97
2023-05-22T10:36:20.215Z,12.43
2023-05-22T10:39:05.025Z,10.90
2023-05-22T10:41:40.387Z,11.40
2023-05-22T10:44:07.613Z,10.93
2023-05-22T10:46:34.622Z,11.48
2023-05-22T10:49:01.949Z,13.90
2023-05-22T10:51:29.326Z,13.15
2023-05-22T10:54:05.862Z,11.07
2023-05-22T10:56:35.730Z,10.60
2023-05-22T10:59:05.736Z,12.50
2023-05-22T11:01:37.856Z,14.45
2023-05-22T11:04:16.252Z,12.77
2023-05-22T11:07:01.973Z,11.93
2023-05-22T11:09:31.581Z,14.82
2023-05-22T11:12:22.483Z,12.30
2023-05-22T11:15:16.473Z,12.35
2023-05-22T11:17:51.142Z,10.70
2023-05-22T11:20:26.085Z,11.20
2023-05-22T11:23:05.350Z,11.10
2023-05-22T11:25:37.975Z,14.65
2023-05-22T11:28:06.077Z,13.60
2023-05-22T11:30:34.867Z,12.50
2023-05-22T11:33:02.251Z,11.85
2023-05-22T11:35:29.684Z,14.43
2023-05-22T11:37:57.514Z,11.68
2023-05-22T11:40:29.358Z,11.27
2023-05-22T11:42:57.320Z,11.35
2023-05-22T11:45:24.436Z,14.45
2023-05-22T11:47:52.400Z,14.35
2023-05-22T11:50:33.552Z,12.20
2023-05-22T11:53:07.670Z,13.13
2023-05-22T11:55:34.827Z,12.77
2023-05-22T11:58:02.837Z,12.15
2023-05-22T12:00:31.662Z,11.55
2023-05-22T12:02:58.878Z,11.98
2023-05-22T12:05:26.491Z,13.85
2023-05-22T12:07:53.376Z,15.70
2023-05-22T12:10:21.020Z,12.48
2023-05-22T12:12:48.126Z,12.40
2023-05-22T12:15:19.581Z,13.02
2023-05-22T12:17:47.118Z,12.90
2023-05-22T12:20:15.039Z,13.63
2023-05-22T12:22:43.353Z,18.40
2023-05-22T12:27:47.433Z,13.75
2023-05-22T12:30:15.325Z,18.27
2023-05-22T12:32:47.626Z,14.73
2023-05-22T12:35:18.827Z,13.60
2023-05-22T12:37:52.219Z,13.63
2023-05-22T12:40:19.949Z,13.15
2023-05-22T12:42:48.021Z,13.63
2023-05-22T12:45:15.203Z,13.25
2023-05-22T12:47:42.879Z,15.13
2023-05-22T12:50:10.191Z,16.27
2023-05-22T12:52:36.891Z,19.58
2023-05-22T12:55:04.551Z,16.10
2023-05-22T12:57:31.615Z,16.33
2023-05-22T12:59:58.627Z,16.00
2023-05-22T13:02:25.438Z,15.02
2023-05-22T13:04:52.089Z,15.32
2023-05-22T13:07:19.647Z,15.18
2023-05-22T13:09:46.708Z,14.25
2023-05-22T13:12:13.921Z,17.02
2023-05-22T13:14:40.901Z,14.75
2023-05-22T13:17:08.343Z,16.83
2023-05-22T13:19:35.208Z,15.40
2023-05-22T13:22:02.866Z,18.70
2023-05-22T13:24:30.345Z,15.82
2023-05-22T13:26:57.004Z,17.80
2023-05-22T13:29:24.135Z,14.55
2023-05-22T13:31:51.762Z,18.10
2023-05-22T13:34:18.596Z,17.42
2023-05-22T13:36:45.914Z,19.08
2023-05-22T13:39:12.641Z,15.95
2023-05-22T13:41:39.280Z,15.90
2023-05-22T13:44:06.583Z,18.00
2023-05-22T13:46:33.176Z,15.40
2023-05-22T13:49:00.220Z,17.67
2023-05-22T13:51:27.814Z,18.15
2023-05-22T13:53:54.570Z,16.98
2023-05-22T13:56:22.769Z,17.20
2023-05-22T13:58:50.395Z,18.52
2023-05-22T14:01:17.527Z,17.52
2023-05-22T14:03:44.696Z,18.83
2023-05-22T14:06:12.268Z,20.65
2023-05-22T14:08:38.884Z,18.75
2023-05-22T14:11:06.541Z,19.85
2023-05-22T14:13:33.306Z,18.45
2023-05-22T14:16:00.843Z,17.95
2023-05-22T14:18:28.103Z,17.48
2023-05-22T14:20:54.705Z,15.55
2023-05-22T14:23:21.890Z,18.33
2023-05-22T14:25:49.752Z,18.10
2023-05-22T14:28:16.405Z,15.07
2023-05-22T14:30:43.627Z,20.80
2023-05-22T14:33:11.350Z,11.93
2023-05-22T14:35:39.289Z,12.20
2023-05-22T14:38:06.157Z,8.50
2023-05-22T14:40:33.393Z,6.88
2023-05-22T14:43:01.276Z,7.30
2023-05-22T14:45:28.036Z,6.80
2023-05-22T14:47:55.937Z,6.93
2023-05-22T14:50:22.786Z,6.75
2023-05-22T14:52:50.753Z,6.43
2023-05-22T14:55:17.933Z,5.70
2023-05-22T14:57:45.030Z,7.35
2023-05-22T15:00:14.978Z,6.15
2023-05-22T15:02:42.197Z,6.78
2023-05-22T15:05:10.164Z,8.82
2023-05-22T15:07:44.090Z,6.55
2023-05-22T15:10:13.467Z,6.40
2023-05-22T15:12:40.219Z,3.88
2023-05-22T15:15:08.534Z,4.38
2023-05-22T15:17:35.670Z,4.70
2023-05-22T15:20:02.466Z,5.68
2023-05-22T15:22:30.004Z,5.25
2023-05-22T15:25:07.963Z,6.55
2023-05-22T15:27:36.225Z,4.85
2023-05-22T15:30:04.386Z,6.05
2023-05-22T15:32:34.717Z,6.90
2023-05-22T15:35:01.452Z,7.35
2023-05-22T15:37:34.504Z,7.63
2023-05-22T15:40:02.138Z,5.50
2023-05-22T15:42:28.879Z,6.82
2023-05-22T15:44:57.000Z,9.27
2023-05-22T15:47:23.613Z,8.30
2023-05-22T15:49:50.771Z,7.43
2023-05-22T15:52:18.536Z,10.48
2023-05-22T15:54:45.306Z,8.38
2023-05-22T15:57:12.550Z,9.98
2023-05-22T15:59:39.307Z,11.20
2023-05-22T16:02:06.809Z,14.10
2023-05-22T16:04:33.958Z,14.15
2023-05-22T16:07:01.426Z,17.27
2023-05-22T16:09:28.082Z,19.98
2023-05-22T16:11:55.551Z,19.25
2023-05-22T16:14:22.112Z,13.13
2023-05-22T16:16:49.525Z,13.50
2023-05-22T16:19:16.279Z,17.60
2023-05-22T16:21:43.452Z,17.13
2023-05-22T16:24:11.019Z,15.65
2023-05-22T16:26:39.564Z,18.70
2023-05-22T16:29:08.164Z,15.88
2023-05-22T16:31:36.110Z,12.35
2023-05-22T16:34:03.865Z,14.10
2023-05-22T16:36:31.557Z,11.77
2023-05-22T16:38:58.261Z,14.27
2023-05-22T16:41:26.940Z,13.30
2023-05-22T16:43:53.692Z,19.67
2023-05-22T16:46:21.372Z,14.63
2023-05-22T16:48:48.413Z,14.85
2023-05-22T16:51:15.938Z,20.17
2023-05-22T16:53:43.009Z,18.85
2023-05-22T16:56:09.934Z,15.25
2023-05-22T16:58:36.947Z,14.70
2023-05-22T17:01:06.703Z,14.07
2023-05-22T17:03:33.895Z,15.85
2023-05-22T17:06:03.493Z,15.52
2023-05-22T17:08:30.545Z,13.03
2023-05-22T17:10:57.983Z,12.68
2023-05-22T17:13:24.619Z,12.82
2023-05-22T17:15:52.402Z,12.48
2023-05-22T17:18:19.897Z,13.13
2023-05-22T17:20:48.418Z,12.40
2023-05-22T17:23:40.073Z,15.00
2023-05-22T17:26:08.212Z,11.15
2023-05-22T17:28:35.369Z,13.88
2023-05-22T17:31:01.983Z,11.23
2023-05-22T17:33:29.519Z,11.73
2023-05-22T17:35:56.295Z,11.80
2023-05-22T17:38:23.395Z,15.25
2023-05-22T17:40:50.801Z,12.93
2023-05-22T17:43:19.121Z,15.30
2023-05-22T17:45:53.194Z,11.30
2023-05-22T17:48:23.739Z,12.55
2023-05-22T17:50:52.365Z,13.90
2023-05-22T17:53:20.887Z,12.13
2023-05-22T17:55:49.776Z,11.87
2023-05-22T17:58:19.911Z,13.30
2023-05-22T18:00:51.794Z,12.43
2023-05-22T18:03:20.873Z,17.20
2023-05-22T18:05:51.981Z,12.25
2023-05-22T18:08:19.094Z,15.90
2023-05-22T18:10:51.349Z,12.05
2023-05-22T18:13:21.335Z,12.23
2023-05-22T18:15:50.513Z,11.25
2023-05-22T18:18:18.423Z,14.45
2023-05-22T18:20:46.208Z,13.38
2023-05-22T18:23:13.916Z,14.15
2023-05-22T18:25:40.881Z,12.73
2023-05-22T18:28:08.786Z,13.05
2023-05-22T18:30:35.647Z,13.98
2023-05-22T18:33:07.246Z,16.35
2023-05-22T18:35:34.477Z,15.57
2023-05-22T18:38:02.368Z,13.35
2023-05-22T18:40:29.065Z,11.13
2023-05-22T18:42:56.164Z,11.52
2023-05-22T18:45:23.702Z,15.57
2023-05-22T18:47:50.619Z,10.75
2023-05-22T18:50:18.451Z,10.45
2023-05-22T18:52:45.674Z,8.55
2023-05-22T18:55:12.479Z,8.55
2023-05-22T18:57:39.632Z,11.63
2023-05-22T19:00:10.470Z,9.10
2023-05-22T19:02:37.617Z,10.40
2023-05-22T19:05:05.144Z,11.25
2023-05-22T19:07:32.709Z,9.98
2023-05-22T19:09:59.610Z,10.75
2023-05-22T19:12:32.149Z,9.75
2023-05-22T19:15:03.137Z,11.07
2023-05-22T19:17:30.711Z,10.57
2023-05-22T19:19:58.031Z,10.82
2023-05-22T19:22:26.563Z,11.40
2023-05-22T19:25:01.271Z,12.85
2023-05-22T19:27:35.663Z,11.50
2023-05-22T19:30:16.658Z,12.98
2023-05-22T19:32:56.092Z,13.30
2023-05-22T19:35:22.906Z,10.35
2023-05-22T19:37:50.499Z,14.00
2023-05-22T19:40:17.598Z,14.73
2023-05-22T19:42:44.876Z,13.50
2023-05-22T19:45:11.910Z,11.07
2023-05-22T19:47:44.647Z,12.43
2023-05-22T19:50:13.590Z,12.90
2023-05-22T19:52:40.990Z,12.82
2023-05-22T19:55:09.461Z,12.63
2023-05-22T19:57:36.993Z,15.60
2023-05-22T20:00:10.879Z,12.55
2023-05-22T20:02:40.036Z,14.07
2023-05-22T20:05:12.846Z,13.30
2023-05-22T20:07:40.580Z,13.30
2023-05-22T20:10:10.360Z,14.60
2023-05-22T20:12:38.164Z,13.80
2023-05-22T20:15:06.833Z,11.77
2023-05-22T20:17:34.506Z,13.40
2023-05-22T20:20:01.158Z,13.15
2023-05-22T20:22:28.589Z,14.10
2023-05-22T20:24:55.138Z,14.63
2023-05-22T20:27:22.437Z,16.95
2023-05-22T20:29:51.671Z,17.08
